Latest Weather Observations for Cape Flattery

IDQ60801

Issued at 11:32 am EST Wednesday 4 May 2016 (issued every 30 minutes, with the page automatically refreshed every 10 minutes)

About weather observations | Map of weather stations | Latest weather observations for QLD | Other Formats
Station Details ID: 031213 Name: CAPE FLATTERY Lat: -14.97 Lon: 145.31 Height: 18.5 m
Data from the previous 72 hours. | See also: Recent months at Cape Flattery
Date/Time
EST
Temp
°C
App
Temp
°C
Dew
Point
Rel
Hum
%
Delta-T
°C
Wind Press
QNH
hPa
Press
MSL
hPa
Rain
since 9 am
mm
Dir
 
Spd
km/h
Gust
km/h
Spd
kts
Gust
kts
04/11:30am 29.8 30.0 22.8 66 4.8 SE 26 35 14 19 1014.0 1013.9 0.0
04/11:00am 29.7 30.5 23.2 68 4.5 SSE 24 32 13 17 1014.4 1014.3 0.0
04/10:30am 29.7 30.6 23.4 69 4.3 SSE 24 32 13 17 1014.5 1014.4 0.0
04/10:00am 29.2 29.7 22.7 68 4.4 SE 24 35 13 19 1014.8 1014.7 0.0
04/09:30am 28.6 29.1 22.6 70 4.1 SE 24 32 13 17 1014.7 1014.6 0.0
04/09:00am 28.4 29.2 22.4 70 4.1 SE 22 33 12 18 1014.7 1014.6 0.0
04/08:30am 28.2 29.1 22.7 72 3.7 SE 22 32 12 17 1014.6 1014.5 0.0
04/08:00am 27.5 28.2 22.2 73 3.6 SE 22 30 12 16 1014.4 1014.3 0.0
04/07:30am 26.8 28.7 22.8 79 2.7 SE 17 24 9 13 1014.1 1014.0 0.0
04/07:00am 26.1 27.2 22.4 80 2.5 SE 20 26 11 14 1013.8 1013.7 0.0
04/06:30am 25.6 27.4 22.5 83 2.1 SE 17 24 9 13 1013.3 1013.2 0.0
04/06:00am 25.6 27.3 22.3 82 2.2 SE 17 26 9 14 1012.8 1012.7 0.0
04/05:30am 25.6 27.4 22.5 83 2.1 SE 17 20 9 11 1012.4 1012.3 0.0
04/05:00am 25.8 27.1 22.3 81 2.4 SE 19 24 10 13 1012.3 1012.2 0.0
04/04:30am 25.8 27.9 22.5 82 2.2 SE 15 22 8 12 1012.2 1012.1 0.0
04/04:00am 26.0 27.3 22.3 80 2.5 SE 19 24 10 13 1012.2 1012.1 0.0
04/03:30am 25.6 27.3 22.3 82 2.2 SE 17 24 9 13 1012.2 1012.1 0.0
04/03:00am 25.8 27.5 22.3 81 2.4 SE 17 24 9 13 1012.4 1012.3 0.0
04/02:30am 26.0 27.3 22.3 80 2.5 SE 19 26 10 14 1012.4 1012.3 0.0
04/02:00am 25.7 27.5 22.6 83 2.1 SE 17 20 9 11 1012.6 1012.5 0.0
04/01:30am 25.9 27.8 22.8 83 2.1 SE 17 24 9 13 1012.8 1012.7 0.0
04/01:00am 26.1 27.5 22.6 81 2.4 SE 19 24 10 13 1013.1 1013.0 0.0
04/12:30am 26.1 27.2 22.4 80 2.5 SE 20 24 11 13 1013.5 1013.4 0.0
04/12:00am 26.2 27.5 22.7 81 2.4 SE 20 28 11 15 1013.6 1013.5 0.0
 
Date/Time
EST
Temp
°C
App
Temp
°C
Dew
Point
Rel
Hum
%
Delta-T
°C
Wind Press
QNH
hPa
Press
MSL
hPa
Rain
since 9 am
mm
Dir
 
Spd
km/h
Gust
km/h
Spd
kts
Gust
kts
03/11:30pm 26.2 27.7 22.7 81 2.4 SE 19 26 10 14 1013.8 1013.7 0.0
03/11:00pm 26.1 27.9 22.6 81 2.4 SE 17 22 9 12 1014.0 1013.9 0.0
03/10:30pm 26.1 27.5 22.6 81 2.4 SE 19 24 10 13 1014.2 1014.1 0.0
03/10:00pm 26.2 28.0 22.5 80 2.5 SE 17 22 9 12 1014.4 1014.3 0.0
03/09:30pm 26.1 28.0 22.8 82 2.2 SE 17 20 9 11 1014.6 1014.5 0.0
03/09:00pm 26.1 27.8 22.4 80 2.5 SE 17 22 9 12 1014.3 1014.2 0.0
03/08:30pm 26.2 26.8 22.1 78 2.7 SE 22 28 12 15 1013.9 1013.8 0.0
03/08:00pm 26.3 27.3 22.2 78 2.8 SE 20 24 11 13 1013.6 1013.5 0.0
03/07:30pm 26.4 27.3 22.7 80 2.5 SE 22 30 12 16 1013.2 1013.1 0.0
03/07:00pm 26.1 27.3 22.2 79 2.6 SE 19 24 10 13 1012.8 1012.7 0.0
03/06:30pm 26.2 27.6 22.5 80 2.5 SE 19 26 10 14 1012.2 1012.1 0.0
03/06:00pm 26.3 27.6 22.4 79 2.6 SE 19 26 10 14 1011.9 1011.8 0.0
03/05:30pm 26.8 27.7 22.0 75 3.2 SE 20 28 11 15 1011.5 1011.4 0.0
03/05:00pm 27.6 28.3 22.3 73 3.6 SE 22 30 12 16 1011.4 1011.3 0.0
03/04:30pm 28.3 28.9 22.1 69 4.2 SSE 22 32 12 17 1011.3 1011.2 0.0
03/04:00pm 27.9 28.7 22.4 72 3.7 SSE 22 30 12 16 1011.3 1011.2 0.0
03/03:30pm 28.4 28.0 21.7 67 4.5 SSE 26 32 14 17 1011.2 1011.1 0.0
03/03:00pm 29.1 30.0 22.6 68 4.4 SSE 22 28 12 15 1011.3 1011.2 0.0
03/02:30pm 28.4 28.5 21.9 68 4.4 SE 24 30 13 16 1011.5 1011.4 0.0
03/02:00pm 29.8 30.5 22.3 64 5.1 SSE 22 30 12 16 1011.6 1011.5 0.0
03/01:30pm 28.9 29.3 21.7 65 4.8 SE 22 28 12 15 1012.0 1011.9 0.0
03/01:00pm 29.1 28.9 22.1 66 4.7 SSE 26 33 14 18 1012.4 1012.3 0.0
03/12:30pm 29.3 29.4 22.5 67 4.6 SSE 26 32 14 17 1012.8 1012.7 0.0
03/12:00pm 29.4 29.5 21.9 64 5.1 SE 24 32 13 17 1013.1 1013.0 0.0
03/11:30am 29.4 29.5 21.9 64 5.1 SE 24 32 13 17 1013.6 1013.5 0.0
03/11:00am 29.6 30.4 23.1 68 4.5 SE 24 32 13 17 1014.0 1013.9 0.0
03/10:30am 29.3 30.1 22.5 67 4.6 SE 22 28 12 15 1014.2 1014.1 0.0
03/10:00am 28.7 29.5 23.1 71 3.8 SE 24 33 13 18 1014.4 1014.3 0.0
03/09:30am 28.8 29.5 22.3 68 4.4 SE 22 30 12 16 1014.4 1014.3 0.0
03/09:00am 28.3 29.1 22.5 71 3.9 SE 22 28 12 15 1014.1 1014.0 0.2
03/08:30am 28.3 28.9 22.8 72 3.7 SE 24 30 13 16 1013.9 1013.8 0.2
03/08:00am 27.7 28.7 22.9 75 3.3 SE 22 28 12 15 1013.7 1013.6 0.2
03/07:30am 26.9 28.2 22.7 78 2.8 SE 20 30 11 16 1013.7 1013.6 0.2
03/07:00am 26.4 28.0 23.3 83 2.1 SE 20 30 11 16 1013.5 1013.4 0.2
03/06:30am 26.1 27.1 22.8 82 2.2 SE 22 30 12 16 1013.2 1013.1 0.2
03/06:00am 26.2 27.3 23.1 83 2.1 SE 22 30 12 16 1012.8 1012.7 0.2
03/05:30am 26.3 27.5 23.2 83 2.1 SE 22 33 12 18 1012.5 1012.4 0.2
03/05:00am 26.3 27.5 23.2 83 2.1 SE 22 30 12 16 1012.3 1012.2 0.2
03/04:30am 26.4 27.7 23.3 83 2.1 SE 22 32 12 17 1012.2 1012.1 0.2
03/04:00am 26.3 28.0 23.4 84 2.0 SE 20 28 11 15 1012.1 1012.0 0.2
03/03:30am 26.3 27.5 23.2 83 2.1 SE 22 32 12 17 1012.1 1012.0 0.2
03/03:00am 26.4 27.3 23.3 83 2.1 SE 24 32 13 17 1012.4 1012.3 0.2
03/02:30am 26.4 27.5 23.7 85 1.9 SE 24 32 13 17 1012.5 1012.4 0.2
03/02:00am 26.4 27.1 23.7 85 1.9 SE 26 33 14 18 1012.8 1012.7 0.2
03/01:30am 26.2 28.1 23.7 86 1.7 SE 20 28 11 15 1013.1 1013.0 0.2
03/01:00am 26.3 28.1 23.6 85 1.8 SE 20 30 11 16 1013.3 1013.2 0.2
03/12:30am 26.7 28.0 24.0 85 1.9 SE 24 30 13 16 1013.8 1013.7 0.2
03/12:00am 26.6 28.3 24.1 86 1.7 SE 22 32 12 17 1013.9 1013.8 0.2
 
Date/Time
EST
Temp
°C
App
Temp
°C
Dew
Point
Rel
Hum
%
Delta-T
°C
Wind Press
QNH
hPa
Press
MSL
hPa
Rain
since 9 am
mm
Dir
 
Spd
km/h
Gust
km/h
Spd
kts
Gust
kts
02/11:30pm 26.5 28.1 23.8 85 1.9 SE 22 32 12 17 1014.1 1014.0 0.2
02/11:00pm 26.7 28.3 23.8 84 2.0 SE 22 32 12 17 1014.3 1014.2 0.2
02/10:30pm 26.9 28.1 23.8 83 2.1 SE 24 35 13 19 1014.5 1014.4 0.2
02/10:00pm 26.9 28.2 24.0 84 2.0 SSE 24 30 13 16 1014.6 1014.5 0.2
02/09:30pm 27.0 28.0 24.1 84 2.0 SE 26 33 14 18 1014.5 1014.4 0.2
02/09:00pm 27.0 28.5 24.3 85 1.9 SE 24 32 13 17 1014.4 1014.3 0.2
02/08:30pm 26.7 28.7 24.0 85 1.9 SE 20 30 11 16 1014.2 1014.1 0.2
02/08:00pm 26.9 28.6 24.0 84 2.0 SE 22 30 12 16 1013.9 1013.8 0.2
02/07:30pm 26.9 28.6 24.0 84 2.0 SSE 22 28 12 15 1013.7 1013.6 0.2
02/07:00pm 26.8 28.9 24.1 85 1.9 SE 20 28 11 15 1013.3 1013.2 0.2
02/06:30pm 26.8 29.0 23.9 84 2.0 SE 19 22 10 12 1012.9 1012.8 0.2
02/06:00pm 27.0 29.0 23.9 83 2.1 SE 20 28 11 15 1012.7 1012.6 0.2
02/05:30pm 27.5 29.1 23.9 81 2.5 SE 22 28 12 15 1012.4 1012.3 0.2
02/05:00pm 27.6 29.2 23.8 80 2.6 SE 22 32 12 17 1012.1 1012.0 0.2
02/04:30pm 28.1 28.9 23.2 74 3.4 SE 24 30 13 16 1011.8 1011.7 0.2
02/04:00pm 28.6 29.5 23.9 75 3.2 SE 26 33 14 18 1011.6 1011.5 0.2
02/03:30pm 28.8 29.7 23.9 75 3.4 SE 26 35 14 19 1011.4 1011.3 0.2
02/03:00pm 29.6 30.5 24.0 72 3.9 SSE 26 35 14 19 1011.4 1011.3 0.2
02/02:30pm 29.5 29.6 23.9 72 3.9 SE 30 37 16 20 1011.5 1011.4 0.2
02/02:00pm 29.8 30.3 24.0 71 4.0 SE 28 35 15 19 1011.7 1011.6 0.2
02/01:30pm 30.2 31.9 24.6 72 3.9 SE 24 33 13 18 1012.1 1012.0 0.2
02/01:00pm 29.3 29.7 23.7 72 3.9 SE 28 39 15 21 1012.3 1012.2 0.2
02/12:30pm 29.7 30.0 24.3 73 3.8 SE 30 37 16 20 1012.7 1012.6 0.2
02/12:00pm 29.8 30.7 24.0 71 4.0 SE 26 37 14 20 1013.1 1013.0 0.2
02/11:30am 29.5 30.5 24.1 72 3.7 SE 26 33 14 18 1013.5 1013.4 0.2
02/11:00am 29.2 30.4 24.5 76 3.3 SE 26 33 14 18 1013.9 1013.8 0.2
02/10:30am 29.4 29.7 23.6 71 4.0 SE 28 35 15 19 1014.3 1014.2 0.2
02/10:00am 28.9 29.3 23.8 74 3.5 SE 28 39 15 21 1014.5 1014.4 0.0
02/09:30am 29.0 29.5 23.9 74 3.5 SE 28 39 15 21 1014.4 1014.3 0.0
02/09:00am 28.4 29.8 24.2 78 2.9 SE 24 35 13 19 1014.5 1014.4 0.6
02/08:30am 28.4 30.2 24.2 78 2.9 SE 22 32 12 17 1014.2 1014.1 0.6
02/08:00am 28.1 30.4 24.5 81 2.5 SE 20 30 11 16 1014.0 1013.9 0.6
02/07:30am 27.4 29.9 24.7 85 1.9 SE 20 32 11 17 1013.7 1013.6 0.6
02/07:00am 26.8 29.4 24.6 88 1.5 SE 19 28 10 15 1013.6 1013.5 0.6
02/06:30am 26.5 28.7 24.2 87 1.6 ESE 20 30 11 16 1013.4 1013.3 0.6
02/06:00am 26.8 28.5 24.6 88 1.5 SE 24 33 13 18 1013.1 1013.0 0.6
02/05:30am 26.8 28.5 24.6 88 1.5 SE 24 33 13 18 1013.0 1012.9 0.6
02/05:00am 26.6 27.3 24.3 87 1.6 SE 28 39 15 21 1012.7 1012.6 0.6
02/04:30am 26.7 28.3 24.5 88 1.5 SE 24 32 13 17 1012.5 1012.4 0.6
02/04:00am 26.7 27.3 24.2 86 1.7 SE 28 39 15 21 1012.4 1012.3 0.6
02/03:30am 26.7 27.7 24.7 89 1.4 SE 28 35 15 19 1012.3 1012.2 0.6
02/03:00am 26.8 27.6 24.5 87 1.6 SE 28 37 15 20 1012.3 1012.2 0.6
02/02:30am 26.5 28.3 24.3 88 1.5 SE 22 32 12 17 1012.5 1012.4 0.6
02/02:00am 26.8 28.5 24.6 88 1.5 SE 24 35 13 19 1012.6 1012.5 0.6
02/01:30am 26.7 27.9 24.5 88 1.5 SE 26 35 14 19 1012.9 1012.8 0.6
02/01:00am 26.8 27.7 24.6 88 1.5 SE 28 37 15 20 1013.1 1013.0 0.6
02/12:30am 26.7 28.3 24.5 88 1.5 SE 24 33 13 18 1013.5 1013.4 0.6
02/12:00am 26.7 28.9 24.9 90 1.3 SE 22 33 12 18 1013.8 1013.7 0.6
 
Date/Time
EST
Temp
°C
App
Temp
°C
Dew
Point
Rel
Hum
%
Delta-T
°C
Wind Press
QNH
hPa
Press
MSL
hPa
Rain
since 9 am
mm
Dir
 
Spd
km/h
Gust
km/h
Spd
kts
Gust
kts
01/11:30pm 26.9 28.7 24.9 89 1.4 SE 24 35 13 19 1013.9 1013.8 0.6
01/11:00pm 26.9 29.1 24.9 89 1.4 SE 22 32 12 17 1014.1 1014.0 0.6
01/10:30pm 26.8 28.8 24.6 88 1.5 SE 22 30 12 16 1014.3 1014.2 0.6
01/10:00pm 26.8 29.0 24.8 89 1.4 SE 22 30 12 16 1014.4 1014.3 0.6
01/09:30pm 26.7 29.3 24.9 90 1.3 SE 20 30 11 16 1014.5 1014.4 0.6
01/09:00pm 26.7 29.5 25.3 92 1.0 SE 20 28 11 15 1014.3 1014.2 0.6
01/08:30pm 26.7 28.8 25.3 92 1.0 SE 24 32 13 17 1014.2 1014.1 0.6
01/08:00pm 27.2 29.1 25.0 88 1.5 SSE 24 32 13 17 1013.9 1013.8 0.6
01/07:30pm 27.1 28.6 24.9 88 1.5 SE 26 33 14 18 1013.6 1013.5 0.6
01/07:00pm 27.0 29.0 24.6 87 1.7 SE 22 30 12 16 1013.3 1013.2 0.6
01/06:30pm 27.1 29.1 24.6 86 1.7 SE 22 33 12 18 1013.1 1013.0 0.6
01/06:00pm 27.3 29.0 24.6 85 1.9 SE 24 33 13 18 1012.9 1012.8 0.6
01/05:30pm 27.7 28.4 24.3 82 2.4 SE 28 35 15 19 1012.6 1012.5 0.6
01/05:00pm 27.9 30.8 24.5 82 2.4 SE 17 28 9 15 1012.3 1012.2 0.6
01/04:30pm 28.1 28.4 24.3 80 2.6 SE 30 39 16 21 1012.3 1012.2 0.6
01/04:00pm 28.8 29.7 24.6 78 2.9 SE 28 35 15 19 1012.2 1012.1 0.6
01/03:30pm 28.9 29.7 24.5 77 3.1 SE 28 35 15 19 1012.2 1012.1 0.6
01/03:00pm 29.7 30.7 24.8 75 3.4 SE 28 37 15 20 1012.2 1012.1 0.6
01/02:30pm 29.5 30.0 24.6 75 3.4 SE 30 39 16 21 1012.3 1012.2 0.6
01/02:00pm 29.2 29.5 24.3 75 3.4 SE 30 41 16 22 1012.6 1012.5 0.6
01/01:30pm 29.2 29.3 24.5 76 3.3 SE 32 43 17 23 1013.0 1012.9 0.4
01/01:00pm 28.6 30.6 25.8 85 2.0 SSE 26 35 14 19 1013.2 1013.1 0.4
01/12:30pm 28.4 30.6 24.8 81 2.5 SSE 22 32 12 17 1013.7 1013.6 0.2
01/12:00pm 29.6 31.6 25.1 77 3.2 SE 24 35 13 19 1014.0 1013.9 0.2

Other Formats:

Comma delimited format used in spreadsheet applications
http://www.bom.gov.au/fwo/IDQ60801/IDQ60801.94188.axf

JavaScript Object Notation format (JSON) in row-major order
http://www.bom.gov.au/fwo/IDQ60801/IDQ60801.94188.json